Time;durP1;ratioP1;P1;durP2;ratioP2;P2;SDS_P1;SDS_P2;PMS_P1;PMS_P2;Temp;Humidity;BMP_temperature;BMP_pressure;BME280_temperature;BME280_humidity;BME280_pressure;Samples;Min_cycle;Max_cycle;Signal;HPM_P1;HPM_P2
2022/05/19 00:01:06;;;;;;;6.90;2.27;;;15.30;99.90;;;;;;5097607;28;20223;-93
2022/05/19 00:03:39;;;;;;;98.23;15.47;;;15.40;99.90;;;;;;5054830;28;20209;-91
2022/05/19 00:06:13;;;;;;;6.47;2.03;;;15.20;99.90;;;;;;5056472;28;20211;-91
2022/05/19 00:08:44;;;;;;;7.17;2.33;;;14.90;99.90;;;;;;5065431;28;20216;-93
2022/05/19 00:11:17;;;;;;;7.33;2.70;;;14.60;99.90;;;;;;5062067;28;20252;-92
2022/05/19 00:13:48;;;;;;;9.53;4.63;;;14.30;99.90;;;;;;5077695;28;20211;-92
2022/05/19 00:16:25;;;;;;;5.50;2.07;;;14.30;99.90;;;;;;5078140;28;20207;-92
2022/05/19 00:18:57;;;;;;;4.03;1.47;;;14.50;99.90;;;;;;5068406;28;20201;-92
2022/05/19 00:21:30;;;;;;;5.80;2.03;;;14.30;99.90;;;;;;5056098;28;20227;-91
2022/05/19 00:24:02;;;;;;;5.87;2.53;;;14.20;99.90;;;;;;5055011;28;20200;-92
2022/05/19 00:26:33;;;;;;;7.93;3.07;;;14.20;99.90;;;;;;5052719;28;20208;-91
2022/05/19 00:29:05;;;;;;;7.07;2.73;;;13.90;99.90;;;;;;5053053;28;20205;-92
2022/05/19 00:31:39;;;;;;;6.47;3.87;;;14.00;99.90;;;;;;5050791;28;20204;-92
2022/05/19 00:34:10;;;;;;;9.07;2.07;;;14.10;99.90;;;;;;5048212;28;20258;-91
2022/05/19 00:36:42;;;;;;;6.53;2.37;;;14.00;99.90;;;;;;5045801;28;20217;-92
2022/05/19 00:39:13;;;;;;;6.60;2.60;;;13.90;99.90;;;;;;5042212;28;20227;-92
2022/05/19 00:41:46;;;;;;;6.50;2.30;;;14.00;99.90;;;;;;5041871;28;20616;-92
2022/05/19 00:44:18;;;;;;;9.00;2.57;;;13.90;99.90;;;;;;5044604;28;20259;-92
2022/05/19 00:46:56;;;;;;;7.37;2.57;;;13.90;99.90;;;;;;5050588;28;20271;-92
2022/05/19 00:49:40;;;;;;;7.50;1.90;;;14.10;99.90;;;;;;5051263;28;20212;-93
2022/05/19 00:52:14;;;;;;;10.50;4.03;;;14.10;99.90;;;;;;5050777;28;20209;-93
2022/05/19 00:54:52;;;;;;;62.40;7.50;;;13.90;99.90;;;;;;5051728;28;20209;-91
2022/05/19 00:57:26;;;;;;;19.87;3.70;;;14.20;99.90;;;;;;5052013;28;20247;-93
2022/05/19 01:00:05;;;;;;;4.87;1.33;;;14.30;99.90;;;;;;5049085;28;20282;-92
2022/05/19 01:02:46;;;;;;;4.20;1.43;;;15.00;99.90;;;;;;5041653;28;20217;-93
2022/05/19 01:05:21;;;;;;;3.17;1.30;;;15.60;99.90;;;;;;5045852;28;20197;-94
2022/05/19 01:08:04;;;;;;;24.47;3.10;;;14.90;99.90;;;;;;5049442;28;20220;-92
2022/05/19 01:10:39;;;;;;;4.73;1.40;;;15.20;99.90;;;;;;5054969;28;20291;-93
2022/05/19 01:13:11;;;;;;;6.50;2.53;;;14.80;99.90;;;;;;5055507;28;20197;-92
2022/05/19 01:15:51;;;;;;;4.80;1.30;;;14.50;99.90;;;;;;5056946;28;20208;-93
2022/05/19 01:46:18;;;;;;;7.87;1.80;;;13.90;99.90;;;;;;5055821;28;20216;-91
2022/05/19 01:49:14;;;;;;;5.27;1.87;;;13.90;99.90;;;;;;5040123;28;20208;-91
2022/05/19 01:51:57;;;;;;;6.60;1.83;;;13.80;99.90;;;;;;5056394;28;20197;-92
2022/05/19 01:54:57;;;;;;;8.13;1.80;;;14.10;99.90;;;;;;5040110;28;20212;-91
2022/05/19 02:35:19;;;;;;;6.90;1.87;;;11.50;99.90;;;;;;5018835;28;20231;-91
2022/05/19 02:43:30;;;;;;;8.30;2.43;;;11.30;99.90;;;;;;5139434;23;20256;-90
2022/05/19 02:46:03;;;;;;;6.00;1.97;;;11.20;99.90;;;;;;5019568;28;20179;-90
2022/05/19 02:48:36;;;;;;;9.70;2.13;;;11.20;99.90;;;;;;5020313;28;20198;-90
2022/05/19 02:51:13;;;;;;;8.30;2.23;;;11.20;99.90;;;;;;5020246;28;20258;-91
2022/05/19 02:53:46;;;;;;;5.43;1.87;;;11.20;99.90;;;;;;5020929;28;20246;-91
2022/05/19 02:56:18;;;;;;;5.70;2.10;;;11.20;99.90;;;;;;5021007;28;20266;-90
2022/05/19 02:58:51;;;;;;;10.67;2.27;;;11.20;99.90;;;;;;5020745;28;20190;-91
2022/05/19 03:01:23;;;;;;;9.17;2.50;;;11.10;99.90;;;;;;5017917;28;20228;-91
2022/05/19 03:03:56;;;;;;;6.43;2.53;;;11.10;99.90;;;;;;5019926;28;20206;-91
2022/05/19 03:06:30;;;;;;;5.17;2.00;;;11.00;99.90;;;;;;5017372;28;20211;-91
2022/05/19 03:09:04;;;;;;;7.07;2.10;;;11.00;99.90;;;;;;5018306;28;20214;-91
2022/05/19 03:11:38;;;;;;;6.17;1.90;;;11.00;99.90;;;;;;5016888;28;20209;-91
2022/05/19 03:14:10;;;;;;;4.53;1.83;;;11.00;99.90;;;;;;5019788;28;20195;-92
2022/05/19 03:16:42;;;;;;;7.53;2.10;;;10.90;99.90;;;;;;5008683;28;20210;-91
2022/05/19 03:19:17;;;;;;;7.67;2.30;;;11.00;99.90;;;;;;5010824;28;20206;-92
2022/05/19 03:21:51;;;;;;;8.73;2.33;;;10.90;99.90;;;;;;5011424;28;20237;-91
2022/05/19 03:24:22;;;;;;;7.67;1.97;;;10.80;99.90;;;;;;5017083;28;20226;-91
2022/05/19 03:26:57;;;;;;;6.20;1.67;;;10.70;99.90;;;;;;5017868;28;20208;-92
2022/05/19 03:29:30;;;;;;;8.00;2.60;;;10.60;99.90;;;;;;5008618;28;20638;-92
2022/05/19 03:32:01;;;;;;;7.90;2.20;;;10.50;99.90;;;;;;5013138;28;20248;-91
2022/05/19 03:34:34;;;;;;;7.43;2.17;;;10.40;99.90;;;;;;5015102;28;20225;-90
2022/05/19 03:37:09;;;;;;;9.70;2.20;;;10.30;99.90;;;;;;5012133;28;20206;-91
2022/05/19 03:39:41;;;;;;;9.47;2.10;;;10.30;99.90;;;;;;5017677;28;20206;-91
2022/05/19 03:44:48;;;;;;;6.37;1.90;;;10.20;99.90;;;;;;5369580;23;20226;-88
2022/05/19 03:47:35;;;;;;;9.23;2.43;;;10.10;99.90;;;;;;5014351;28;20201;-90
2022/05/19 03:50:07;;;;;;;10.73;2.90;;;10.10;99.90;;;;;;5012159;28;20211;-90
2022/05/19 03:52:47;;;;;;;11.20;2.67;;;10.00;99.90;;;;;;5015888;28;20233;-89
2022/05/19 03:55:18;;;;;;;7.63;2.20;;;9.90;99.90;;;;;;5012616;28;20224;-90
2022/05/19 04:00:37;;;;;;;8.07;2.40;;;10.00;99.90;;;;;;5431838;23;20248;-90
2022/05/19 04:03:09;;;;;;;6.93;2.00;;;9.90;99.90;;;;;;5011250;28;20175;-90
2022/05/19 04:05:41;;;;;;;9.70;2.10;;;9.90;99.90;;;;;;5007904;28;20228;-90
2022/05/19 04:08:15;;;;;;;6.97;2.90;;;9.90;99.90;;;;;;4996906;28;20230;-90
2022/05/19 04:27:05;;;;;;;7.90;2.17;;;9.50;99.90;;;;;;5020501;28;20275;-91
2022/05/19 04:29:36;;;;;;;4.03;2.73;;;9.40;99.90;;;;;;5031140;28;20272;-92
2022/05/19 04:32:08;;;;;;;9.40;2.90;;;9.40;99.90;;;;;;5025304;28;20267;-91
2022/05/19 04:34:43;;;;;;;8.60;2.57;;;9.30;99.90;;;;;;5023639;28;20236;-90
2022/05/19 04:37:15;;;;;;;5.83;2.00;;;9.30;99.90;;;;;;5021749;28;20206;-91
2022/05/19 04:39:47;;;;;;;9.77;2.83;;;9.20;99.90;;;;;;5022811;28;20210;-91
2022/05/19 04:42:21;;;;;;;7.63;2.60;;;9.20;99.90;;;;;;5021256;28;20253;-90
2022/05/19 04:44:55;;;;;;;7.67;2.27;;;9.20;99.90;;;;;;5021584;28;20206;-91
2022/05/19 04:47:26;;;;;;;10.07;2.40;;;9.20;99.90;;;;;;5020700;28;20584;-90
2022/05/19 04:49:59;;;;;;;10.83;2.47;;;9.10;99.90;;;;;;5020410;28;20266;-91
2022/05/19 04:52:30;;;;;;;13.00;2.30;;;9.10;99.90;;;;;;5021705;28;20205;-91
2022/05/19 04:55:01;;;;;;;8.63;3.00;;;9.00;99.90;;;;;;5020542;28;20224;-91
2022/05/19 04:57:43;;;;;;;9.43;2.10;;;9.00;99.90;;;;;;5020875;28;20241;-90
2022/05/19 05:00:16;;;;;;;7.53;2.07;;;8.90;99.90;;;;;;5022000;28;20577;-91
2022/05/19 05:02:47;;;;;;;10.13;2.70;;;8.90;99.90;;;;;;5020350;28;20328;-91
2022/05/19 05:05:19;;;;;;;12.10;3.67;;;8.80;99.90;;;;;;5021237;28;20256;-91
2022/05/19 05:07:51;;;;;;;6.43;2.70;;;8.80;99.90;;;;;;5024497;28;20212;-91
2022/05/19 05:10:22;;;;;;;7.43;2.10;;;8.70;99.90;;;;;;5023207;28;20201;-91
2022/05/19 05:12:56;;;;;;;9.17;3.03;;;8.70;99.90;;;;;;5023665;28;20214;-91
2022/05/19 05:15:27;;;;;;;12.57;2.40;;;8.70;99.90;;;;;;5035467;28;20201;-91
2022/05/19 05:18:00;;;;;;;10.10;2.60;;;8.60;99.90;;;;;;5034485;28;20232;-91
2022/05/19 05:20:47;;;;;;;6.57;2.10;;;8.60;99.90;;;;;;5031694;28;20263;-90
2022/05/19 05:23:18;;;;;;;8.90;2.20;;;8.60;99.90;;;;;;5025944;28;20213;-91
2022/05/19 05:25:50;;;;;;;8.00;2.57;;;8.50;99.90;;;;;;5026177;28;20216;-91
2022/05/19 05:28:25;;;;;;;5.83;2.27;;;8.50;99.90;;;;;;5030078;28;20211;-91
2022/05/19 05:30:57;;;;;;;11.03;5.67;;;8.40;99.90;;;;;;5030571;28;20211;-91
2022/05/19 05:33:29;;;;;;;7.57;2.20;;;8.40;99.90;;;;;;5022317;28;20248;-92
2022/05/19 05:36:01;;;;;;;13.90;3.37;;;8.40;99.90;;;;;;5021369;28;20214;-91
2022/05/19 05:38:34;;;;;;;9.90;2.60;;;8.30;99.90;;;;;;5019761;28;20216;-92
2022/05/19 05:41:08;;;;;;;8.47;2.70;;;8.20;99.90;;;;;;5018308;28;20232;-91
2022/05/19 05:43:45;;;;;;;7.57;2.40;;;8.30;99.90;;;;;;5029875;28;20217;-92
2022/05/19 05:46:19;;;;;;;8.80;2.50;;;8.30;99.90;;;;;;5020157;28;20217;-92
2022/05/19 05:48:55;;;;;;;10.53;2.70;;;8.30;99.90;;;;;;5019276;28;20230;-92
2022/05/19 05:51:27;;;;;;;12.23;2.90;;;8.30;99.90;;;;;;5026442;28;20220;-92
2022/05/19 05:54:00;;;;;;;8.10;2.23;;;8.20;99.90;;;;;;5035495;28;20213;-91
2022/05/19 05:56:31;;;;;;;11.23;2.67;;;8.20;99.90;;;;;;5034318;28;20500;-90
2022/05/19 05:59:07;;;;;;;13.33;2.93;;;8.10;99.90;;;;;;5022087;28;20223;-92
2022/05/19 06:01:39;;;;;;;9.17;3.17;;;8.10;99.90;;;;;;5019342;28;20233;-91
2022/05/19 06:04:13;;;;;;;9.17;2.87;;;8.10;99.90;;;;;;5020211;28;20229;-91
2022/05/19 06:06:46;;;;;;;11.03;3.30;;;8.10;99.90;;;;;;5019674;28;20260;-91
2022/05/19 06:09:18;;;;;;;8.30;2.63;;;8.00;99.90;;;;;;5020018;28;20201;-91
2022/05/19 06:11:51;;;;;;;10.83;3.00;;;8.00;99.90;;;;;;5004505;28;20341;-92
2022/05/19 06:14:24;;;;;;;15.50;3.03;;;8.10;99.90;;;;;;5012756;28;20284;-92
2022/05/19 06:16:55;;;;;;;11.03;3.60;;;8.00;99.90;;;;;;4997580;28;20260;-92
2022/05/19 06:19:27;;;;;;;13.27;3.33;;;8.00;99.90;;;;;;4995990;28;20316;-92
2022/05/19 06:22:04;;;;;;;11.33;2.90;;;8.00;99.90;;;;;;5001762;28;20694;-92
2022/05/19 06:24:38;;;;;;;13.43;3.23;;;8.00;99.90;;;;;;5002640;28;20240;-90
2022/05/19 06:27:10;;;;;;;15.13;2.57;;;8.00;99.90;;;;;;5018126;28;20229;-92
2022/05/19 06:29:44;;;;;;;11.20;2.70;;;8.00;99.90;;;;;;5031292;28;20192;-92
2022/05/19 06:32:17;;;;;;;12.57;3.30;;;8.10;99.90;;;;;;5032590;28;20196;-91
2022/05/19 06:34:50;;;;;;;13.50;2.77;;;8.10;99.90;;;;;;5038299;28;20252;-91
2022/05/19 06:37:24;;;;;;;9.70;3.80;;;8.10;99.90;;;;;;5034346;28;20209;-91
2022/05/19 06:39:56;;;;;;;18.87;3.17;;;8.10;99.90;;;;;;5032375;28;20228;-91
2022/05/19 06:42:27;;;;;;;13.17;3.13;;;8.10;99.90;;;;;;5027045;28;20251;-92
2022/05/19 06:45:04;;;;;;;12.13;3.07;;;8.20;99.90;;;;;;5020949;28;20228;-91
2022/05/19 06:47:38;;;;;;;14.97;3.13;;;8.20;99.90;;;;;;5023960;28;20216;-92
2022/05/19 06:50:11;;;;;;;9.93;2.97;;;8.20;99.90;;;;;;5014430;28;20268;-92
2022/05/19 06:52:49;;;;;;;9.83;2.67;;;8.20;99.90;;;;;;5003797;28;20250;-91
2022/05/19 06:55:21;;;;;;;15.47;3.30;;;8.10;99.90;;;;;;5004041;28;20292;-92
2022/05/19 06:57:53;;;;;;;7.70;2.03;;;8.10;99.90;;;;;;5003150;28;20233;-91
2022/05/19 07:00:28;;;;;;;11.53;2.83;;;8.10;99.90;;;;;;5002821;28;20286;-91
2022/05/19 07:03:02;;;;;;;10.63;3.03;;;8.20;99.90;;;;;;5005800;28;20260;-91
2022/05/19 07:05:37;;;;;;;11.97;3.13;;;8.30;99.90;;;;;;5001969;28;20206;-91
2022/05/19 07:08:09;;;;;;;12.33;3.47;;;8.30;99.90;;;;;;5002256;28;20229;-90
2022/05/19 07:10:42;;;;;;;12.83;3.40;;;8.30;99.90;;;;;;4999882;28;20604;-90
2022/05/19 07:13:14;;;;;;;12.77;2.77;;;8.20;99.90;;;;;;5002190;28;20215;-90
2022/05/19 07:15:47;;;;;;;11.40;2.60;;;8.20;99.90;;;;;;5002519;28;20272;-90
2022/05/19 07:18:19;;;;;;;12.47;2.73;;;8.20;99.90;;;;;;5004620;28;20218;-90
2022/05/19 07:20:49;;;;;;;10.90;2.77;;;8.30;99.90;;;;;;5003556;28;20221;-90
2022/05/19 07:23:21;;;;;;;24.90;2.80;;;8.30;99.90;;;;;;5008828;28;20309;-90
2022/05/19 07:25:54;;;;;;;10.47;3.53;;;8.30;99.90;;;;;;5009729;28;20217;-91
2022/05/19 07:28:25;;;;;;;10.93;2.97;;;8.30;99.90;;;;;;5008784;28;20217;-91
2022/05/19 07:31:03;;;;;;;11.33;3.20;;;8.30;99.90;;;;;;5001960;28;20217;-91
2022/05/19 07:33:38;;;;;;;11.97;2.93;;;8.30;99.90;;;;;;5008492;28;20210;-91
2022/05/19 07:36:09;;;;;;;11.70;3.03;;;8.30;99.90;;;;;;5007105;28;20244;-91
2022/05/19 07:38:41;;;;;;;10.20;2.47;;;8.30;99.90;;;;;;5002951;28;20622;-91
2022/05/19 07:41:12;;;;;;;10.53;2.87;;;8.30;99.90;;;;;;5002258;28;20206;-91
2022/05/19 07:43:44;;;;;;;10.07;2.27;;;8.40;99.90;;;;;;4999771;28;20245;-91
2022/05/19 07:46:20;;;;;;;9.93;2.40;;;8.40;99.90;;;;;;5001103;28;20218;-91
2022/05/19 07:48:53;;;;;;;11.57;3.17;;;8.50;99.90;;;;;;5003321;28;20236;-90
2022/05/19 07:51:28;;;;;;;6.83;2.17;;;8.60;99.90;;;;;;5000942;28;20222;-90
2022/05/19 07:53:59;;;;;;;7.93;2.47;;;8.60;99.90;;;;;;5001717;28;20214;-90
2022/05/19 07:56:32;;;;;;;9.43;2.30;;;8.60;99.90;;;;;;5002728;28;20253;-91
2022/05/19 07:59:05;;;;;;;9.17;2.60;;;8.70;99.90;;;;;;5006153;28;20226;-90
2022/05/19 08:01:40;;;;;;;7.97;2.37;;;8.70;99.90;;;;;;5005256;28;20210;-90
2022/05/19 08:04:17;;;;;;;10.57;2.97;;;8.60;99.90;;;;;;5033968;28;20237;-90
2022/05/19 08:06:48;;;;;;;10.30;2.63;;;8.60;99.90;;;;;;5035395;28;20192;-90
2022/05/19 08:12:16;;;;;;;10.73;2.83;;;8.40;99.90;;;;;;5023466;28;20205;-90
2022/05/19 08:17:42;;;;;;;9.90;2.50;;;8.00;99.90;;;;;;5031021;28;20205;-90
2022/05/19 08:20:14;;;;;;;12.00;2.80;;;7.90;99.90;;;;;;5023930;28;20216;-91
2022/05/19 08:22:45;;;;;;;8.97;2.43;;;7.90;99.90;;;;;;5020114;28;20260;-90
2022/05/19 08:25:17;;;;;;;13.33;3.43;;;7.90;99.90;;;;;;5019803;28;20217;-91
2022/05/19 08:27:48;;;;;;;13.40;2.97;;;8.00;99.90;;;;;;5018177;28;20276;-90
2022/05/19 08:30:20;;;;;;;13.93;2.70;;;8.00;99.90;;;;;;5018883;28;20209;-90
2022/05/19 08:32:53;;;;;;;12.57;3.43;;;8.10;99.90;;;;;;5018498;28;20236;-91
2022/05/19 08:35:25;;;;;;;16.87;2.87;;;8.20;99.90;;;;;;5019120;28;20217;-91
2022/05/19 08:37:56;;;;;;;12.40;2.90;;;8.10;99.90;;;;;;5019056;28;20222;-90
2022/05/19 08:40:39;;;;;;;9.77;2.60;;;8.00;99.90;;;;;;5017760;28;20221;-91
2022/05/19 08:43:12;;;;;;;15.27;3.17;;;8.00;99.90;;;;;;5017586;28;20225;-91
2022/05/19 08:45:47;;;;;;;12.10;2.70;;;8.00;99.90;;;;;;5019010;28;20625;-90
2022/05/19 08:48:26;;;;;;;11.07;2.90;;;8.00;99.90;;;;;;5018546;28;20249;-91
2022/05/19 08:51:00;;;;;;;9.23;2.33;;;8.00;99.90;;;;;;5021003;28;20259;-92
2022/05/19 08:53:33;;;;;;;12.73;2.80;;;8.00;99.90;;;;;;5018837;28;20723;-91
2022/05/19 08:56:12;;;;;;;11.77;2.47;;;8.10;99.90;;;;;;5018215;28;20309;-92
2022/05/19 08:58:52;;;;;;;12.43;2.67;;;8.00;99.90;;;;;;5018460;28;20209;-91
2022/05/19 09:01:30;;;;;;;9.10;2.37;;;7.90;99.90;;;;;;5017613;28;20557;-92
2022/05/19 09:04:20;;;;;;;9.73;2.43;;;7.90;99.90;;;;;;5018748;28;20228;-91
2022/05/19 09:10:03;;;;;;;9.53;2.43;;;7.90;99.90;;;;;;5003705;28;20345;-91
2022/05/19 09:12:37;;;;;;;6.93;2.43;;;7.90;99.90;;;;;;4998324;28;20206;-91
2022/05/19 09:15:11;;;;;;;10.47;2.40;;;7.80;99.90;;;;;;5003143;28;20211;-91
2022/05/19 09:17:47;;;;;;;12.47;2.50;;;8.00;99.90;;;;;;4998446;28;20251;-92
2022/05/19 09:20:27;;;;;;;11.33;2.33;;;7.90;99.90;;;;;;4997849;28;20274;-92
2022/05/19 09:23:03;;;;;;;8.90;2.27;;;7.80;99.90;;;;;;4999039;28;20202;-91
2022/05/19 09:25:38;;;;;;;11.47;2.70;;;7.90;99.90;;;;;;4998511;28;20265;-91
2022/05/19 09:28:13;;;;;;;6.80;2.47;;;7.90;99.90;;;;;;4998022;28;20202;-91
2022/05/19 09:30:50;;;;;;;10.23;2.80;;;7.70;99.90;;;;;;4996599;28;20210;-91
2022/05/19 09:33:24;;;;;;;11.50;2.60;;;7.70;99.90;;;;;;4998310;28;20209;-91
2022/05/19 09:36:00;;;;;;;9.57;2.63;;;7.70;99.90;;;;;;4997964;28;20202;-92
2022/05/19 09:38:36;;;;;;;7.50;2.20;;;7.70;99.90;;;;;;4998475;28;20210;-92
2022/05/19 09:41:10;;;;;;;8.47;2.20;;;7.60;99.90;;;;;;4998160;28;20241;-91
2022/05/19 09:43:53;;;;;;;8.73;1.83;;;7.60;99.90;;;;;;4997866;28;20243;-91
2022/05/19 09:46:26;;;;;;;9.63;2.50;;;7.60;99.90;;;;;;4998706;28;20207;-91
2022/05/19 09:49:03;;;;;;;8.23;2.30;;;7.60;99.90;;;;;;4998053;28;20244;-91
2022/05/19 09:51:46;;;;;;;12.17;2.07;;;7.50;99.90;;;;;;4998087;28;20280;-91
2022/05/19 09:54:19;;;;;;;12.83;2.83;;;7.40;99.90;;;;;;4998949;28;20253;-91
2022/05/19 09:56:53;;;;;;;8.37;2.53;;;7.40;99.90;;;;;;4998515;28;20217;-91
2022/05/19 09:59:27;;;;;;;8.80;2.13;;;7.50;99.90;;;;;;4998061;28;20301;-93
2022/05/19 10:02:06;;;;;;;8.20;2.40;;;7.50;99.90;;;;;;4998487;28;20241;-91
2022/05/19 10:04:42;;;;;;;10.67;2.50;;;7.40;99.90;;;;;;4997977;28;20258;-90
2022/05/19 10:07:22;;;;;;;8.97;2.93;;;7.30;99.90;;;;;;4998115;28;20604;-90
2022/05/19 10:09:58;;;;;;;11.13;3.23;;;7.20;99.90;;;;;;4998306;28;20206;-91
2022/05/19 10:12:32;;;;;;;14.97;2.87;;;7.20;99.90;;;;;;4998424;28;20210;-91
2022/05/19 10:15:07;;;;;;;8.00;2.43;;;7.20;99.90;;;;;;5011174;28;20204;-91
2022/05/19 10:17:50;;;;;;;11.10;2.60;;;7.30;99.90;;;;;;5015242;28;20206;-91
2022/05/19 10:20:31;;;;;;;7.70;2.27;;;7.40;99.90;;;;;;5011872;28;20242;-91
2022/05/19 10:23:43;;;;;;;6.90;2.30;;;7.30;99.90;;;;;;4999785;28;20211;-91
2022/05/19 10:26:36;;;;;;;9.10;2.10;;;7.30;99.90;;;;;;4999163;28;20237;-91
2022/05/19 10:32:46;;;;;;;7.73;2.20;;;7.30;99.90;;;;;;5017184;28;20209;-91
2022/05/19 10:35:27;;;;;;;8.73;2.40;;;7.30;99.90;;;;;;5024687;28;20679;-89
2022/05/19 10:38:29;;;;;;;7.37;2.23;;;7.40;99.90;;;;;;5024887;28;20209;-91
2022/05/19 10:41:37;;;;;;;11.30;2.47;;;7.30;99.90;;;;;;5031914;28;20188;-90
2022/05/19 10:44:36;;;;;;;8.53;2.53;;;7.30;99.90;;;;;;5029136;28;20232;-91
2022/05/19 10:47:19;;;;;;;7.40;2.13;;;7.30;99.90;;;;;;5021236;28;20224;-91
2022/05/19 10:50:09;;;;;;;10.13;2.63;;;7.10;99.90;;;;;;5018614;28;20740;-89
2022/05/19 10:52:56;;;;;;;10.73;2.13;;;7.10;99.90;;;;;;5018513;28;20214;-91
2022/05/19 10:55:37;;;;;;;11.33;2.60;;;7.00;99.90;;;;;;5016845;28;20663;-90
2022/05/19 10:58:24;;;;;;;8.80;2.37;;;6.90;99.90;;;;;;5023724;28;20272;-90
2022/05/19 11:01:10;;;;;;;7.90;2.60;;;6.90;99.90;;;;;;5017057;28;20205;-90
2022/05/19 11:04:10;;;;;;;7.60;2.00;;;6.90;99.90;;;;;;4997203;28;20210;-89
2022/05/19 11:07:09;;;;;;;10.60;2.67;;;6.90;99.90;;;;;;4998756;28;20268;-90
2022/05/19 11:09:49;;;;;;;9.70;2.30;;;6.90;99.90;;;;;;5000447;28;20668;-90
2022/05/19 11:12:29;;;;;;;12.53;2.43;;;7.00;99.90;;;;;;5000440;28;20217;-90
2022/05/19 11:15:17;;;;;;;13.47;2.70;;;7.00;99.90;;;;;;5000371;28;20214;-90
2022/05/19 11:17:58;;;;;;;9.57;2.40;;;6.90;99.90;;;;;;4999828;28;20213;-90
2022/05/19 11:20:33;;;;;;;6.63;2.07;;;6.80;99.90;;;;;;5000541;28;20221;-90
2022/05/19 11:23:12;;;;;;;9.80;2.43;;;6.90;99.90;;;;;;5001304;28;20233;-90
2022/05/19 11:28:42;;;;;;;9.70;2.67;;;6.60;99.90;;;;;;5001237;28;20206;-89
2022/05/19 11:31:19;;;;;;;7.47;2.40;;;6.60;99.90;;;;;;5002579;28;20202;-90
2022/05/19 11:33:57;;;;;;;8.80;1.87;;;6.50;99.90;;;;;;5027118;28;20236;-90
2022/05/19 11:36:38;;;;;;;11.67;2.00;;;6.60;99.90;;;;;;5021105;28;20213;-90
2022/05/19 11:39:18;;;;;;;5.50;2.17;;;6.60;99.90;;;;;;5023015;28;20205;-90
2022/05/19 11:41:52;;;;;;;6.30;1.80;;;6.50;99.90;;;;;;5032655;28;20190;-89
2022/05/19 11:44:29;;;;;;;8.23;2.03;;;6.60;99.90;;;;;;5038647;28;20232;-90
2022/05/19 11:47:08;;;;;;;7.20;1.93;;;6.60;99.90;;;;;;5038123;28;20198;-90
2022/05/19 11:55:45;;;;;;;9.93;2.10;;;6.50;99.90;;;;;;5026553;28;20263;-91
2022/05/19 11:58:21;;;;;;;6.70;2.20;;;6.40;99.90;;;;;;5031455;28;20252;-91
2022/05/19 12:00:59;;;;;;;9.33;1.97;;;6.50;99.90;;;;;;5035663;28;20200;-91
2022/05/19 12:03:40;;;;;;;6.50;2.10;;;6.50;99.90;;;;;;5012189;28;20210;-91
2022/05/19 12:06:21;;;;;;;6.30;2.17;;;6.50;99.90;;;;;;5010172;28;20273;-90
2022/05/19 12:08:59;;;;;;;8.60;1.93;;;6.40;99.90;;;;;;5005645;28;20233;-90
2022/05/19 12:11:52;;;;;;;11.17;2.13;;;6.40;99.90;;;;;;4999680;28;20216;-90
2022/05/19 12:14:38;;;;;;;8.80;1.70;;;6.40;99.90;;;;;;5001685;28;20268;-91
2022/05/19 12:17:33;;;;;;;5.43;1.87;;;6.30;99.90;;;;;;5000190;28;20316;-90
2022/05/19 12:20:45;;;;;;;11.37;2.17;;;6.40;99.90;;;;;;4993267;28;20284;-91
2022/05/19 12:23:25;;;;;;;5.30;1.43;;;6.40;99.90;;;;;;5001480;28;20272;-90
2022/05/19 12:26:01;;;;;;;6.13;2.03;;;6.50;99.90;;;;;;5001300;28;20230;-89
2022/05/19 12:28:50;;;;;;;6.03;2.07;;;6.50;99.90;;;;;;5013473;28;20202;-90
2022/05/19 12:34:24;;;;;;;5.53;1.90;;;6.60;99.90;;;;;;5029644;28;20205;-90
2022/05/19 12:37:28;;;;;;;7.37;1.93;;;6.60;99.90;;;;;;5024894;28;20204;-90
2022/05/19 12:40:24;;;;;;;10.60;2.13;;;6.60;99.90;;;;;;5012778;28;20229;-91
2022/05/19 12:43:19;;;;;;;7.43;2.20;;;6.70;99.90;;;;;;5023832;28;20233;-90
2022/05/19 12:45:52;;;;;;;8.80;1.77;;;6.70;99.90;;;;;;5034754;23;20238;-89
2022/05/19 12:48:41;;;;;;;9.33;2.50;;;6.80;99.90;;;;;;5003843;28;20222;-89
2022/05/19 12:51:27;;;;;;;9.40;2.33;;;6.80;99.90;;;;;;5002957;28;20210;-89
2022/05/19 12:54:19;;;;;;;12.93;2.50;;;6.70;99.90;;;;;;5003464;28;20228;-90
2022/05/19 12:57:28;;;;;;;8.40;2.23;;;6.80;99.90;;;;;;5003640;28;20229;-90
2022/05/19 13:00:20;;;;;;;8.33;2.23;;;6.80;99.90;;;;;;5002649;28;20237;-90
2022/05/19 13:03:05;;;;;;;11.43;2.47;;;6.80;99.90;;;;;;4999857;28;20210;-90
2022/05/19 13:05:42;;;;;;;9.90;2.23;;;6.90;99.90;;;;;;5000213;28;20650;-90
2022/05/19 13:08:27;;;;;;;7.47;2.00;;;7.00;99.90;;;;;;4998183;28;20260;-91
2022/05/19 13:11:04;;;;;;;7.33;2.00;;;6.90;99.90;;;;;;5002449;28;20234;-90
2022/05/19 13:13:38;;;;;;;8.13;2.10;;;6.90;99.90;;;;;;5000379;28;20229;-90
2022/05/19 13:16:15;;;;;;;7.33;1.70;;;7.00;99.90;;;;;;5000620;28;20207;-90
2022/05/19 13:18:52;;;;;;;3.73;1.90;;;6.90;99.90;;;;;;5000284;28;20289;-90
2022/05/19 13:21:26;;;;;;;6.07;2.10;;;7.00;99.90;;;;;;5001652;28;20202;-90
2022/05/19 13:24:02;;;;;;;9.33;2.30;;;7.00;99.90;;;;;;4998696;28;20206;-90
2022/05/19 13:26:39;;;;;;;10.53;2.70;;;6.90;99.90;;;;;;5000195;28;20243;-90
2022/05/19 13:32:04;;;;;;;7.57;2.40;;;6.80;99.90;;;;;;5002969;28;20211;-90
2022/05/19 13:34:43;;;;;;;8.07;2.37;;;6.80;99.90;;;;;;4999478;28;20206;-89
2022/05/19 13:37:16;;;;;;;11.97;2.40;;;6.80;99.90;;;;;;5000248;28;20241;-89
2022/05/19 13:39:47;;;;;;;5.10;1.90;;;6.80;99.90;;;;;;5000619;28;20231;-90
2022/05/19 13:42:22;;;;;;;10.30;3.10;;;6.80;99.90;;;;;;4997608;28;20230;-89
2022/05/19 13:44:57;;;;;;;8.17;2.33;;;6.80;99.90;;;;;;5000934;28;20557;-90
2022/05/19 13:47:30;;;;;;;9.33;2.07;;;6.80;99.90;;;;;;5001149;28;20257;-90
2022/05/19 13:50:06;;;;;;;8.27;2.07;;;6.80;99.90;;;;;;4998280;28;20201;-90
2022/05/19 13:52:44;;;;;;;8.57;2.00;;;6.80;99.90;;;;;;4999790;28;20705;-90
2022/05/19 13:55:27;;;;;;;8.00;2.20;;;6.90;99.90;;;;;;4999968;28;20220;-90
2022/05/19 13:58:01;;;;;;;5.73;2.10;;;7.00;99.90;;;;;;5001023;28;20205;-90
2022/05/19 14:00:38;;;;;;;6.67;2.67;;;7.10;99.90;;;;;;4997590;28;20308;-90
2022/05/19 14:03:09;;;;;;;6.97;1.83;;;7.30;99.90;;;;;;4999926;28;20271;-90
2022/05/19 14:05:43;;;;;;;6.33;2.00;;;7.50;99.90;;;;;;4997905;28;20218;-90
2022/05/19 14:08:18;;;;;;;6.60;1.80;;;7.50;99.90;;;;;;4997830;28;20209;-91
2022/05/19 14:11:04;;;;;;;8.33;2.10;;;7.60;99.90;;;;;;4997394;28;20218;-91
2022/05/19 14:13:40;;;;;;;9.13;2.30;;;7.70;99.90;;;;;;5117506;23;20255;-90
2022/05/19 14:16:16;;;;;;;7.50;2.10;;;7.90;99.90;;;;;;4996200;28;20260;-90
2022/05/19 14:18:52;;;;;;;6.83;2.43;;;7.90;99.90;;;;;;4997835;28;20210;-90
2022/05/19 14:21:25;;;;;;;6.10;1.97;;;7.90;99.90;;;;;;4997236;28;20209;-90
2022/05/19 14:24:01;;;;;;;4.47;1.97;;;7.90;99.90;;;;;;4997427;28;20210;-90
2022/05/19 14:26:39;;;;;;;7.97;2.17;;;8.00;99.90;;;;;;4997694;28;20244;-90
2022/05/19 14:29:15;;;;;;;9.27;1.90;;;8.20;99.90;;;;;;4997630;28;20214;-90
2022/05/19 14:31:58;;;;;;;4.97;1.77;;;8.10;99.90;;;;;;4996481;28;20205;-90
2022/05/19 14:34:36;;;;;;;7.80;2.00;;;8.10;99.90;;;;;;5000823;28;20206;-90
2022/05/19 14:37:13;;;;;;;5.40;2.10;;;8.00;99.90;;;;;;5001140;28;20203;-90
2022/05/19 14:39:48;;;;;;;8.57;2.10;;;7.80;99.90;;;;;;4997014;28;20217;-90
2022/05/19 14:45:18;;;;;;;5.23;1.37;;;7.80;99.90;;;;;;5001839;28;20234;-90
2022/05/19 14:47:54;;;;;;;4.33;1.77;;;7.80;99.90;;;;;;5002187;28;20553;-90
2022/05/19 14:50:32;;;;;;;4.37;1.60;;;7.70;99.90;;;;;;5003410;28;20202;-90
2022/05/19 14:53:05;;;;;;;5.67;1.67;;;7.90;99.90;;;;;;5018454;28;20229;-90
2022/05/19 14:55:39;;;;;;;7.73;1.93;;;8.10;99.90;;;;;;5017609;28;20206;-90
2022/05/19 14:58:14;;;;;;;7.83;1.93;;;8.20;99.90;;;;;;5007438;28;20222;-89
2022/05/19 15:00:48;;;;;;;7.30;2.13;;;8.10;99.90;;;;;;5001330;28;20562;-90
2022/05/19 15:03:19;;;;;;;7.43;2.10;;;8.10;99.90;;;;;;5002057;28;20244;-91
2022/05/19 15:05:55;;;;;;;3.33;1.60;;;7.90;99.90;;;;;;5003896;28;20216;-90
2022/05/19 15:08:29;;;;;;;5.20;1.70;;;8.00;99.90;;;;;;5011658;28;20244;-90
2022/05/19 15:11:00;;;;;;;6.00;1.60;;;8.20;99.90;;;;;;5012696;28;20221;-91
2022/05/19 15:13:37;;;;;;;4.57;1.53;;;8.40;99.90;;;;;;5014996;28;20336;-90
2022/05/19 15:16:12;;;;;;;4.13;1.57;;;8.20;99.90;;;;;;5014295;28;20244;-91
2022/05/19 15:18:50;;;;;;;3.43;1.30;;;8.30;99.90;;;;;;5010836;28;20238;-91
2022/05/19 15:21:22;;;;;;;7.37;1.50;;;8.30;99.90;;;;;;5010921;28;20206;-91
2022/05/19 15:23:54;;;;;;;3.63;1.50;;;8.60;99.90;;;;;;5014910;28;20616;-90
2022/05/19 15:26:26;;;;;;;5.57;1.80;;;8.80;99.90;;;;;;5012105;28;20234;-91
2022/05/19 15:31:46;;;;;;;4.27;1.50;;;8.80;99.90;;;;;;5017105;28;20237;-91
2022/05/19 15:34:21;;;;;;;5.83;2.00;;;8.80;99.90;;;;;;5017824;28;20206;-91
2022/05/19 15:36:52;;;;;;;3.43;1.50;;;8.90;99.90;;;;;;5010461;28;20663;-91
2022/05/19 15:39:24;;;;;;;4.70;1.40;;;9.00;99.90;;;;;;5013719;28;20601;-91
2022/05/19 15:41:55;;;;;;;5.23;1.63;;;8.80;99.90;;;;;;5017360;28;20224;-91
2022/05/19 15:44:26;;;;;;;8.87;1.80;;;8.80;99.90;;;;;;5017382;28;20203;-91
2022/05/19 15:47:01;;;;;;;5.63;1.50;;;9.00;99.90;;;;;;5018163;28;20253;-91